sensor_id;sensor_type;location;lat;lon;timestamp;pressure;altitude;pressure_sealevel;temperature;humidity
40948;BME280;49382;-25.924;28.194;2023-03-15T00:01:16;85154.04;;;21.53;34.89
40948;BME280;49382;-25.924;28.194;2023-03-15T00:03:40;85151.65;;;21.41;35.48
40948;BME280;49382;-25.924;28.194;2023-03-15T00:06:06;85147.55;;;22.00;34.93
40948;BME280;49382;-25.924;28.194;2023-03-15T00:08:32;85149.42;;;20.76;36.53
40948;BME280;49382;-25.924;28.194;2023-03-15T00:10:58;85150.72;;;23.16;33.34
40948;BME280;49382;-25.924;28.194;2023-03-15T00:13:23;85151.12;;;23.25;33.52
40948;BME280;49382;-25.924;28.194;2023-03-15T00:15:51;85153.56;;;23.41;33.10
40948;BME280;49382;-25.924;28.194;2023-03-15T00:18:16;85154.56;;;21.20;35.91
40948;BME280;49382;-25.924;28.194;2023-03-15T00:20:41;85152.75;;;21.01;36.53
40948;BME280;49382;-25.924;28.194;2023-03-15T00:23:07;85152.75;;;21.00;36.58
40948;BME280;49382;-25.924;28.194;2023-03-15T00:25:32;85157.32;;;19.66;38.55
40948;BME280;49382;-25.924;28.194;2023-03-15T00:27:58;85160.34;;;20.48;38.00
40948;BME280;49382;-25.924;28.194;2023-03-15T00:30:24;85160.85;;;20.83;37.46
40948;BME280;49382;-25.924;28.194;2023-03-15T00:32:52;85161.19;;;22.67;34.79
40948;BME280;49382;-25.924;28.194;2023-03-15T00:35:14;85160.33;;;22.35;35.39
40948;BME280;49382;-25.924;28.194;2023-03-15T00:37:40;85158.85;;;22.11;35.86
40948;BME280;49382;-25.924;28.194;2023-03-15T00:40:06;85158.40;;;21.70;36.50
40948;BME280;49382;-25.924;28.194;2023-03-15T00:42:30;85158.89;;;20.14;38.43
40948;BME280;49382;-25.924;28.194;2023-03-15T00:44:55;85159.56;;;21.40;36.96
40948;BME280;49382;-25.924;28.194;2023-03-15T00:47:20;85159.03;;;22.00;36.53
40948;BME280;49382;-25.924;28.194;2023-03-15T00:49:46;85155.31;;;22.53;35.40
40948;BME280;49382;-25.924;28.194;2023-03-15T00:52:11;85155.54;;;22.32;35.41
40948;BME280;49382;-25.924;28.194;2023-03-15T00:54:36;85158.27;;;22.00;36.44
40948;BME280;49382;-25.924;28.194;2023-03-15T00:57:02;85159.93;;;20.54;38.24
40948;BME280;49382;-25.924;28.194;2023-03-15T00:59:29;85155.87;;;20.92;37.39
40948;BME280;49382;-25.924;28.194;2023-03-15T01:01:53;85157.08;;;22.38;35.79
40948;BME280;49382;-25.924;28.194;2023-03-15T01:04:17;85158.13;;;22.00;36.11
40948;BME280;49382;-25.924;28.194;2023-03-15T01:06:42;85156.35;;;20.66;37.92
40948;BME280;49382;-25.924;28.194;2023-03-15T01:09:08;85156.54;;;19.65;39.41
40948;BME280;49382;-25.924;28.194;2023-03-15T01:11:33;85155.94;;;19.71;39.90
40948;BME280;49382;-25.924;28.194;2023-03-15T01:13:59;85152.55;;;20.49;38.81
40948;BME280;49382;-25.924;28.194;2023-03-15T01:16:24;85148.40;;;20.65;37.97
40948;BME280;49382;-25.924;28.194;2023-03-15T01:18:49;85145.16;;;22.20;36.26
40948;BME280;49382;-25.924;28.194;2023-03-15T01:21:16;85143.60;;;21.21;38.26
40948;BME280;49382;-25.924;28.194;2023-03-15T01:23:40;85141.20;;;19.72;40.38
40948;BME280;49382;-25.924;28.194;2023-03-15T01:26:09;85140.09;;;20.15;39.22
40948;BME280;49382;-25.924;28.194;2023-03-15T01:28:31;85135.93;;;20.60;38.89
40948;BME280;49382;-25.924;28.194;2023-03-15T01:30:57;85129.30;;;22.08;36.50
40948;BME280;49382;-25.924;28.194;2023-03-15T01:33:22;85128.02;;;22.42;36.09
40948;BME280;49382;-25.924;28.194;2023-03-15T01:35:48;85131.31;;;20.64;39.08
40948;BME280;49382;-25.924;28.194;2023-03-15T01:38:14;85134.64;;;19.90;40.46
40948;BME280;49382;-25.924;28.194;2023-03-15T01:40:41;85138.50;;;19.68;40.10
40948;BME280;49382;-25.924;28.194;2023-03-15T01:43:13;85137.43;;;22.43;36.56
40948;BME280;49382;-25.924;28.194;2023-03-15T01:47:56;85141.22;;;22.56;36.19
40948;BME280;49382;-25.924;28.194;2023-03-15T01:50:21;85143.86;;;21.27;38.27
40948;BME280;49382;-25.924;28.194;2023-03-15T01:52:47;85143.09;;;21.10;38.34
40948;BME280;49382;-25.924;28.194;2023-03-15T01:55:15;85143.57;;;21.36;37.78
40948;BME280;49382;-25.924;28.194;2023-03-15T01:57:40;85145.07;;;19.53;40.78
40948;BME280;49382;-25.924;28.194;2023-03-15T02:00:06;85144.47;;;21.13;38.93
40948;BME280;49382;-25.924;28.194;2023-03-15T02:02:30;85141.83;;;20.73;38.77
40948;BME280;49382;-25.924;28.194;2023-03-15T02:04:58;85139.30;;;21.05;38.46
40948;BME280;49382;-25.924;28.194;2023-03-15T02:07:23;85131.56;;;22.10;37.03
40948;BME280;49382;-25.924;28.194;2023-03-15T02:09:53;85131.22;;;21.92;37.21
40948;BME280;49382;-25.924;28.194;2023-03-15T02:12:13;85132.56;;;19.81;40.69
40948;BME280;49382;-25.924;28.194;2023-03-15T02:14:40;85131.41;;;21.00;38.59
40948;BME280;49382;-25.924;28.194;2023-03-15T02:17:05;85127.44;;;22.22;36.77
40948;BME280;49382;-25.924;28.194;2023-03-15T02:19:40;85132.33;;;21.55;38.29
40948;BME280;49382;-25.924;28.194;2023-03-15T02:22:02;85135.11;;;20.20;40.50
40948;BME280;49382;-25.924;28.194;2023-03-15T02:24:30;85138.89;;;21.22;39.00
40948;BME280;49382;-25.924;28.194;2023-03-15T02:26:52;85145.86;;;19.95;40.88
40948;BME280;49382;-25.924;28.194;2023-03-15T02:29:14;85147.06;;;20.39;40.10
40948;BME280;49382;-25.924;28.194;2023-03-15T02:31:40;85150.36;;;20.76;39.45
40948;BME280;49382;-25.924;28.194;2023-03-15T02:34:06;85152.08;;;19.13;41.92
40948;BME280;49382;-25.924;28.194;2023-03-15T02:36:31;85159.84;;;20.16;40.83
40948;BME280;49382;-25.924;28.194;2023-03-15T02:38:57;85156.95;;;21.45;38.61
40948;BME280;49382;-25.924;28.194;2023-03-15T02:41:27;85158.05;;;21.77;38.18
40948;BME280;49382;-25.924;28.194;2023-03-15T02:43:50;85161.63;;;21.96;37.37
40948;BME280;49382;-25.924;28.194;2023-03-15T02:46:14;85166.47;;;21.88;37.55
40948;BME280;49382;-25.924;28.194;2023-03-15T02:48:42;85163.43;;;20.82;39.32
40948;BME280;49382;-25.924;28.194;2023-03-15T02:51:06;85164.20;;;20.11;40.40
40948;BME280;49382;-25.924;28.194;2023-03-15T02:53:32;85160.74;;;19.50;41.86
40948;BME280;49382;-25.924;28.194;2023-03-15T02:55:57;85163.20;;;21.60;38.88
40948;BME280;49382;-25.924;28.194;2023-03-15T02:58:23;85165.82;;;19.54;41.59
40948;BME280;49382;-25.924;28.194;2023-03-15T03:00:50;85163.03;;;19.72;42.21
40948;BME280;49382;-25.924;28.194;2023-03-15T03:03:15;85157.77;;;18.99;43.00
40948;BME280;49382;-25.924;28.194;2023-03-15T03:05:40;85157.04;;;18.58;42.73
40948;BME280;49382;-25.924;28.194;2023-03-15T03:08:06;85158.05;;;19.24;42.53
40948;BME280;49382;-25.924;28.194;2023-03-15T03:10:32;85162.35;;;20.23;41.00
40948;BME280;49382;-25.924;28.194;2023-03-15T03:12:58;85166.41;;;20.82;40.19
40948;BME280;49382;-25.924;28.194;2023-03-15T03:15:23;85166.30;;;21.59;38.74
40948;BME280;49382;-25.924;28.194;2023-03-15T03:17:48;85167.09;;;21.79;38.48
40948;BME280;49382;-25.924;28.194;2023-03-15T03:20:14;85162.52;;;20.93;40.22
40948;BME280;49382;-25.924;28.194;2023-03-15T03:22:40;85163.47;;;20.15;41.37
40948;BME280;49382;-25.924;28.194;2023-03-15T03:25:07;85166.69;;;21.10;40.12
40948;BME280;49382;-25.924;28.194;2023-03-15T03:27:31;85169.61;;;21.81;38.99
40948;BME280;49382;-25.924;28.194;2023-03-15T03:29:58;85172.53;;;21.00;39.38
40948;BME280;49382;-25.924;28.194;2023-03-15T03:32:22;85176.07;;;21.69;38.65
40948;BME280;49382;-25.924;28.194;2023-03-15T03:34:48;85175.69;;;21.49;39.25
40948;BME280;49382;-25.924;28.194;2023-03-15T03:37:15;85176.79;;;21.72;38.49
40948;BME280;49382;-25.924;28.194;2023-03-15T03:39:40;85177.92;;;21.78;38.32
40948;BME280;49382;-25.924;28.194;2023-03-15T03:42:05;85180.96;;;20.97;39.67
40948;BME280;49382;-25.924;28.194;2023-03-15T03:44:30;85182.46;;;20.89;39.19
40948;BME280;49382;-25.924;28.194;2023-03-15T03:46:56;85184.22;;;21.30;38.77
40948;BME280;49382;-25.924;28.194;2023-03-15T03:49:22;85188.73;;;21.30;38.55
40948;BME280;49382;-25.924;28.194;2023-03-15T03:51:48;85189.27;;;20.90;38.82
40948;BME280;49382;-25.924;28.194;2023-03-15T03:54:13;85193.11;;;20.55;39.70
40948;BME280;49382;-25.924;28.194;2023-03-15T03:56:39;85191.35;;;19.63;41.34
40948;BME280;49382;-25.924;28.194;2023-03-15T03:59:05;85195.94;;;19.69;41.16
40948;BME280;49382;-25.924;28.194;2023-03-15T04:01:30;85204.27;;;20.67;39.90
40948;BME280;49382;-25.924;28.194;2023-03-15T04:03:56;85201.46;;;19.09;42.40
40948;BME280;49382;-25.924;28.194;2023-03-15T04:06:22;85197.64;;;19.62;41.84
40948;BME280;49382;-25.924;28.194;2023-03-15T04:08:47;85197.27;;;18.92;42.94
40948;BME280;49382;-25.924;28.194;2023-03-15T04:11:13;85195.43;;;19.27;42.47
40948;BME280;49382;-25.924;28.194;2023-03-15T04:13:38;85197.41;;;20.37;40.99
40948;BME280;49382;-25.924;28.194;2023-03-15T04:16:05;85197.02;;;19.19;42.94
40948;BME280;49382;-25.924;28.194;2023-03-15T04:18:30;85198.97;;;19.81;41.63
40948;BME280;49382;-25.924;28.194;2023-03-15T04:20:56;85203.15;;;18.90;43.32
40948;BME280;49382;-25.924;28.194;2023-03-15T04:23:22;85208.43;;;18.84;43.63
40948;BME280;49382;-25.924;28.194;2023-03-15T04:25:48;85206.90;;;19.56;42.70
40948;BME280;49382;-25.924;28.194;2023-03-15T04:28:12;85210.04;;;18.11;44.69
40948;BME280;49382;-25.924;28.194;2023-03-15T04:30:37;85213.00;;;18.60;43.59
40948;BME280;49382;-25.924;28.194;2023-03-15T04:33:03;85215.10;;;17.36;45.61
40948;BME280;49382;-25.924;28.194;2023-03-15T04:35:31;85215.83;;;17.91;45.09
40948;BME280;49382;-25.924;28.194;2023-03-15T04:37:54;85215.96;;;18.05;45.07
40948;BME280;49382;-25.924;28.194;2023-03-15T04:40:20;85219.18;;;17.69;45.51
40948;BME280;49382;-25.924;28.194;2023-03-15T04:42:46;85217.86;;;18.18;44.93
40948;BME280;49382;-25.924;28.194;2023-03-15T04:45:11;85224.80;;;17.77;45.87
40948;BME280;49382;-25.924;28.194;2023-03-15T04:47:37;85224.52;;;17.95;45.71
40948;BME280;49382;-25.924;28.194;2023-03-15T04:50:03;85223.83;;;19.17;43.86
40948;BME280;49382;-25.924;28.194;2023-03-15T04:52:28;85221.71;;;18.65;44.20
40948;BME280;49382;-25.924;28.194;2023-03-15T04:54:54;85222.84;;;19.11;44.07
40948;BME280;49382;-25.924;28.194;2023-03-15T04:57:20;85223.82;;;19.93;42.56
40948;BME280;49382;-25.924;28.194;2023-03-15T04:59:46;85224.53;;;19.11;43.74
40948;BME280;49382;-25.924;28.194;2023-03-15T05:02:11;85216.62;;;19.90;42.43
40948;BME280;49382;-25.924;28.194;2023-03-15T05:04:37;85218.37;;;19.90;43.36
40948;BME280;49382;-25.924;28.194;2023-03-15T05:07:03;85220.41;;;20.30;42.06
40948;BME280;49382;-25.924;28.194;2023-03-15T05:09:28;85224.60;;;21.22;41.35
40948;BME280;49382;-25.924;28.194;2023-03-15T05:11:54;85226.99;;;20.98;41.69
40948;BME280;49382;-25.924;28.194;2023-03-15T05:14:20;85226.92;;;20.60;41.98
40948;BME280;49382;-25.924;28.194;2023-03-15T05:16:46;85228.81;;;22.11;40.06
40948;BME280;49382;-25.924;28.194;2023-03-15T05:19:11;85223.89;;;20.08;43.16
40948;BME280;49382;-25.924;28.194;2023-03-15T05:21:37;85225.06;;;21.12;41.78
40948;BME280;49382;-25.924;28.194;2023-03-15T05:24:03;85226.31;;;20.11;42.82
40948;BME280;49382;-25.924;28.194;2023-03-15T05:26:28;85229.12;;;22.16;40.32
40948;BME280;49382;-25.924;28.194;2023-03-15T05:28:54;85231.29;;;20.32;43.34
40948;BME280;49382;-25.924;28.194;2023-03-15T05:31:19;85234.56;;;20.82;41.91
40948;BME280;49382;-25.924;28.194;2023-03-15T05:33:45;85231.55;;;22.24;39.54
40948;BME280;49382;-25.924;28.194;2023-03-15T05:36:10;85230.39;;;22.60;39.71
40948;BME280;49382;-25.924;28.194;2023-03-15T05:38:36;85232.22;;;22.62;39.38
40948;BME280;49382;-25.924;28.194;2023-03-15T05:41:02;85236.94;;;21.96;40.22
40948;BME280;49382;-25.924;28.194;2023-03-15T05:43:27;85244.12;;;21.74;40.54
40948;BME280;49382;-25.924;28.194;2023-03-15T05:45:54;85250.51;;;22.41;39.38
40948;BME280;49382;-25.924;28.194;2023-03-15T05:48:19;85254.24;;;22.88;38.71
40948;BME280;49382;-25.924;28.194;2023-03-15T05:50:44;85255.77;;;23.92;38.61
40948;BME280;49382;-25.924;28.194;2023-03-15T05:53:10;85259.83;;;21.58;41.53
40948;BME280;49382;-25.924;28.194;2023-03-15T05:55:36;85261.18;;;21.99;40.32
40948;BME280;49382;-25.924;28.194;2023-03-15T05:58:02;85262.91;;;21.30;41.82
40948;BME280;49382;-25.924;28.194;2023-03-15T06:00:28;85267.62;;;21.26;42.79
40948;BME280;49382;-25.924;28.194;2023-03-15T06:02:53;85271.84;;;21.77;40.97
40948;BME280;49382;-25.924;28.194;2023-03-15T06:05:19;85271.15;;;21.97;40.98
40948;BME280;49382;-25.924;28.194;2023-03-15T06:07:45;85272.27;;;22.90;40.34
40948;BME280;49382;-25.924;28.194;2023-03-15T06:10:11;85272.65;;;21.95;42.01
40948;BME280;49382;-25.924;28.194;2023-03-15T06:12:36;85270.31;;;21.59;41.72
40948;BME280;49382;-25.924;28.194;2023-03-15T06:15:02;85269.88;;;22.05;43.79
40948;BME280;49382;-25.924;28.194;2023-03-15T06:17:28;85270.01;;;21.24;42.66
40948;BME280;49382;-25.924;28.194;2023-03-15T06:19:53;85278.04;;;21.70;41.87
40948;BME280;49382;-25.924;28.194;2023-03-15T06:22:19;85279.54;;;21.61;42.51
40948;BME280;49382;-25.924;28.194;2023-03-15T06:24:45;85279.19;;;21.10;43.70
40948;BME280;49382;-25.924;28.194;2023-03-15T06:27:11;85279.40;;;21.00;43.23
40948;BME280;49382;-25.924;28.194;2023-03-15T06:29:36;85273.73;;;20.57;43.49
40948;BME280;49382;-25.924;28.194;2023-03-15T06:32:02;85273.44;;;21.52;42.46
40948;BME280;49382;-25.924;28.194;2023-03-15T06:34:28;85275.59;;;22.63;40.57
40948;BME280;49382;-25.924;28.194;2023-03-15T06:36:54;85276.02;;;21.68;41.91
40948;BME280;49382;-25.924;28.194;2023-03-15T06:39:19;85275.56;;;21.99;41.39
40948;BME280;49382;-25.924;28.194;2023-03-15T06:41:45;85277.17;;;22.03;41.41
40948;BME280;49382;-25.924;28.194;2023-03-15T06:44:11;85274.48;;;21.34;43.04
40948;BME280;49382;-25.924;28.194;2023-03-15T06:46:37;85273.73;;;21.32;43.79
40948;BME280;49382;-25.924;28.194;2023-03-15T06:49:02;85275.84;;;22.50;41.36
40948;BME280;49382;-25.924;28.194;2023-03-15T06:51:28;85277.60;;;23.20;40.15
40948;BME280;49382;-25.924;28.194;2023-03-15T06:53:54;85279.29;;;22.43;43.12
40948;BME280;49382;-25.924;28.194;2023-03-15T06:56:20;85276.04;;;22.08;42.30
40948;BME280;49382;-25.924;28.194;2023-03-15T06:58:45;85271.12;;;21.70;42.22
40948;BME280;49382;-25.924;28.194;2023-03-15T07:01:12;85269.43;;;21.95;42.49
40948;BME280;49382;-25.924;28.194;2023-03-15T07:03:37;85268.18;;;21.73;42.04
40948;BME280;49382;-25.924;28.194;2023-03-15T07:06:03;85270.85;;;21.69;42.04
40948;BME280;49382;-25.924;28.194;2023-03-15T07:08:29;85269.99;;;22.84;39.99
40948;BME280;49382;-25.924;28.194;2023-03-15T07:10:54;85267.06;;;23.32;40.81
40948;BME280;49382;-25.924;28.194;2023-03-15T07:13:21;85267.98;;;23.16;41.59
40948;BME280;49382;-25.924;28.194;2023-03-15T07:15:50;85267.01;;;23.83;40.14
40948;BME280;49382;-25.924;28.194;2023-03-15T07:18:11;85262.70;;;23.07;40.77
40948;BME280;49382;-25.924;28.194;2023-03-15T07:20:37;85264.34;;;23.69;40.39
40948;BME280;49382;-25.924;28.194;2023-03-15T07:23:03;85265.09;;;24.52;37.31
40948;BME280;49382;-25.924;28.194;2023-03-15T07:25:29;85262.56;;;23.25;40.78
40948;BME280;49382;-25.924;28.194;2023-03-15T07:27:54;85261.05;;;26.23;35.63
40948;BME280;49382;-25.924;28.194;2023-03-15T07:30:20;85261.77;;;26.85;34.85
40948;BME280;49382;-25.924;28.194;2023-03-15T07:32:46;85258.15;;;24.87;36.38
40948;BME280;49382;-25.924;28.194;2023-03-15T07:35:12;85260.81;;;26.16;35.18
40948;BME280;49382;-25.924;28.194;2023-03-15T07:37:38;85260.49;;;26.67;33.07
40948;BME280;49382;-25.924;28.194;2023-03-15T07:40:04;85259.51;;;25.99;33.11
40948;BME280;49382;-25.924;28.194;2023-03-15T07:42:29;85260.76;;;24.03;38.65
40948;BME280;49382;-25.924;28.194;2023-03-15T07:44:55;85261.55;;;23.39;37.35
40948;BME280;49382;-25.924;28.194;2023-03-15T07:47:20;85261.68;;;23.32;38.62
40948;BME280;49382;-25.924;28.194;2023-03-15T07:49:46;85263.41;;;25.40;35.25
40948;BME280;49382;-25.924;28.194;2023-03-15T07:52:12;85261.69;;;26.80;34.28
40948;BME280;49382;-25.924;28.194;2023-03-15T07:54:38;85257.73;;;26.24;35.77
40948;BME280;49382;-25.924;28.194;2023-03-15T07:57:04;85261.95;;;27.16;32.79
40948;BME280;49382;-25.924;28.194;2023-03-15T07:59:29;85255.47;;;27.48;32.52
40948;BME280;49382;-25.924;28.194;2023-03-15T08:01:55;85257.40;;;27.05;33.20
40948;BME280;49382;-25.924;28.194;2023-03-15T08:04:21;85253.57;;;27.15;33.78
40948;BME280;49382;-25.924;28.194;2023-03-15T08:06:47;85251.16;;;27.17;32.94
40948;BME280;49382;-25.924;28.194;2023-03-15T08:09:12;85249.95;;;27.69;31.83
40948;BME280;49382;-25.924;28.194;2023-03-15T08:11:38;85247.53;;;27.21;31.93
40948;BME280;49382;-25.924;28.194;2023-03-15T08:14:04;85247.21;;;27.59;33.79
40948;BME280;49382;-25.924;28.194;2023-03-15T08:16:30;85245.11;;;27.56;34.84
40948;BME280;49382;-25.924;28.194;2023-03-15T08:18:55;85246.94;;;26.45;36.56
40948;BME280;49382;-25.924;28.194;2023-03-15T08:21:21;85240.78;;;27.85;34.30
40948;BME280;49382;-25.924;28.194;2023-03-15T08:23:47;85237.02;;;26.87;35.03
40948;BME280;49382;-25.924;28.194;2023-03-15T08:26:13;85242.40;;;26.68;35.80
40948;BME280;49382;-25.924;28.194;2023-03-15T08:28:38;85238.68;;;27.81;32.85
40948;BME280;49382;-25.924;28.194;2023-03-15T08:31:06;85237.67;;;28.68;31.09
40948;BME280;49382;-25.924;28.194;2023-03-15T08:33:30;85236.20;;;28.22;30.81
40948;BME280;49382;-25.924;28.194;2023-03-15T08:35:56;85237.56;;;27.91;34.94
40948;BME280;49382;-25.924;28.194;2023-03-15T08:38:21;85235.96;;;27.13;33.40
40948;BME280;49382;-25.924;28.194;2023-03-15T08:40:47;85235.75;;;26.36;37.15
40948;BME280;49382;-25.924;28.194;2023-03-15T08:43:13;85231.61;;;26.44;32.91
40948;BME280;49382;-25.924;28.194;2023-03-15T08:45:38;85230.10;;;26.57;32.62
40948;BME280;49382;-25.924;28.194;2023-03-15T08:48:05;85226.77;;;27.33;32.76
40948;BME280;49382;-25.924;28.194;2023-03-15T08:50:30;85221.26;;;29.09;30.98
40948;BME280;49382;-25.924;28.194;2023-03-15T08:52:56;85222.21;;;28.52;31.76
40948;BME280;49382;-25.924;28.194;2023-03-15T08:55:21;85214.46;;;29.42;29.64
40948;BME280;49382;-25.924;28.194;2023-03-15T08:57:47;85216.27;;;27.72;29.33
40948;BME280;49382;-25.924;28.194;2023-03-15T09:00:14;85216.61;;;27.24;30.89
40948;BME280;49382;-25.924;28.194;2023-03-15T09:02:38;85207.37;;;29.45;28.86
40948;BME280;49382;-25.924;28.194;2023-03-15T09:05:04;85213.22;;;26.71;33.97
40948;BME280;49382;-25.924;28.194;2023-03-15T09:07:30;85213.28;;;28.30;35.83
40948;BME280;49382;-25.924;28.194;2023-03-15T09:09:55;85208.99;;;27.36;35.18
40948;BME280;49382;-25.924;28.194;2023-03-15T09:12:21;85201.35;;;28.66;33.61
40948;BME280;49382;-25.924;28.194;2023-03-15T09:14:47;85199.74;;;27.94;33.36
40948;BME280;49382;-25.924;28.194;2023-03-15T09:17:13;85197.20;;;27.62;35.87
40948;BME280;49382;-25.924;28.194;2023-03-15T09:19:38;85189.27;;;28.88;30.97
40948;BME280;49382;-25.924;28.194;2023-03-15T09:22:05;85190.61;;;27.46;35.70
40948;BME280;49382;-25.924;28.194;2023-03-15T09:24:30;85191.38;;;27.56;35.48
40948;BME280;49382;-25.924;28.194;2023-03-15T09:26:56;85188.22;;;27.22;33.68
40948;BME280;49382;-25.924;28.194;2023-03-15T09:29:21;85181.97;;;26.17;32.54
40948;BME280;49382;-25.924;28.194;2023-03-15T09:31:47;85177.72;;;27.25;31.80
40948;BME280;49382;-25.924;28.194;2023-03-15T09:34:13;85172.43;;;27.65;32.07
40948;BME280;49382;-25.924;28.194;2023-03-15T09:36:39;85164.30;;;28.34;36.20
40948;BME280;49382;-25.924;28.194;2023-03-15T09:39:04;85157.90;;;28.32;35.67
40948;BME280;49382;-25.924;28.194;2023-03-15T09:41:40;85153.52;;;29.30;32.21
40948;BME280;49382;-25.924;28.194;2023-03-15T09:44:06;85151.30;;;29.32;31.76
40948;BME280;49382;-25.924;28.194;2023-03-15T09:46:27;85148.52;;;28.70;29.91
40948;BME280;49382;-25.924;28.194;2023-03-15T09:48:51;85145.17;;;28.59;29.94
40948;BME280;49382;-25.924;28.194;2023-03-15T09:51:16;85145.05;;;27.10;31.58
40948;BME280;49382;-25.924;28.194;2023-03-15T09:53:42;85145.96;;;27.23;30.47
40948;BME280;49382;-25.924;28.194;2023-03-15T09:56:15;85139.36;;;27.80;29.59
40948;BME280;49382;-25.924;28.194;2023-03-15T09:58:32;85135.30;;;29.22;27.29
40948;BME280;49382;-25.924;28.194;2023-03-15T10:00:58;85128.91;;;28.29;28.65
40948;BME280;49382;-25.924;28.194;2023-03-15T10:03:27;85124.79;;;29.07;30.92
40948;BME280;49382;-25.924;28.194;2023-03-15T10:05:51;85119.19;;;29.29;31.65
40948;BME280;49382;-25.924;28.194;2023-03-15T10:08:15;85115.39;;;28.78;32.06
40948;BME280;49382;-25.924;28.194;2023-03-15T10:10:46;85112.98;;;27.81;30.58
40948;BME280;49382;-25.924;28.194;2023-03-15T10:15:37;85108.11;;;27.59;30.92
40948;BME280;49382;-25.924;28.194;2023-03-15T10:20:25;85106.33;;;29.23;29.39
40948;BME280;49382;-25.924;28.194;2023-03-15T10:22:53;85102.01;;;27.22;29.70
40948;BME280;49382;-25.924;28.194;2023-03-15T10:25:17;85100.78;;;26.67;31.25
40948;BME280;49382;-25.924;28.194;2023-03-15T10:27:42;85096.63;;;27.32;30.51
40948;BME280;49382;-25.924;28.194;2023-03-15T10:30:15;85093.31;;;28.90;28.80
40948;BME280;49382;-25.924;28.194;2023-03-15T10:32:37;85094.03;;;27.27;33.77
40948;BME280;49382;-25.924;28.194;2023-03-15T10:34:58;85091.01;;;26.26;32.30
40948;BME280;49382;-25.924;28.194;2023-03-15T10:37:23;85085.45;;;27.59;30.27
40948;BME280;49382;-25.924;28.194;2023-03-15T10:39:52;85086.12;;;28.80;29.04
40948;BME280;49382;-25.924;28.194;2023-03-15T10:44:39;85078.24;;;27.14;31.45
40948;BME280;49382;-25.924;28.194;2023-03-15T10:47:11;85075.57;;;26.93;35.48
40948;BME280;49382;-25.924;28.194;2023-03-15T10:49:34;85072.54;;;27.96;31.67
40948;BME280;49382;-25.924;28.194;2023-03-15T10:51:58;85067.14;;;27.15;30.71
40948;BME280;49382;-25.924;28.194;2023-03-15T10:54:23;85067.00;;;27.77;32.29
40948;BME280;49382;-25.924;28.194;2023-03-15T10:56:52;85060.72;;;27.04;30.25
40948;BME280;49382;-25.924;28.194;2023-03-15T10:59:18;85059.89;;;26.79;30.12
40948;BME280;49382;-25.924;28.194;2023-03-15T11:01:40;85054.52;;;27.40;29.75
40948;BME280;49382;-25.924;28.194;2023-03-15T11:04:14;85053.86;;;29.06;30.47
40948;BME280;49382;-25.924;28.194;2023-03-15T11:06:38;85045.62;;;28.24;29.05
40948;BME280;49382;-25.924;28.194;2023-03-15T11:11:23;85038.34;;;28.40;28.78
40948;BME280;49382;-25.924;28.194;2023-03-15T11:13:57;85037.37;;;27.92;29.95
40948;BME280;49382;-25.924;28.194;2023-03-15T11:16:20;85027.96;;;28.20;27.87
40948;BME280;49382;-25.924;28.194;2023-03-15T11:18:45;85026.94;;;29.42;27.30
40948;BME280;49382;-25.924;28.194;2023-03-15T11:21:09;85026.22;;;29.40;26.93
40948;BME280;49382;-25.924;28.194;2023-03-15T11:23:35;85026.76;;;29.35;26.91
40948;BME280;49382;-25.924;28.194;2023-03-15T11:25:57;85017.92;;;27.88;26.25
40948;BME280;49382;-25.924;28.194;2023-03-15T11:28:26;85014.68;;;29.23;25.12
40948;BME280;49382;-25.924;28.194;2023-03-15T11:30:48;85010.42;;;27.99;27.22
40948;BME280;49382;-25.924;28.194;2023-03-15T11:33:24;85009.24;;;29.70;26.43
40948;BME280;49382;-25.924;28.194;2023-03-15T11:35:44;85003.22;;;29.15;26.42
40948;BME280;49382;-25.924;28.194;2023-03-15T11:38:11;85000.62;;;29.71;25.65
40948;BME280;49382;-25.924;28.194;2023-03-15T11:40:34;84997.24;;;28.80;25.95
40948;BME280;49382;-25.924;28.194;2023-03-15T11:43:02;84994.12;;;29.66;24.48
40948;BME280;49382;-25.924;28.194;2023-03-15T11:45:30;84988.85;;;29.51;24.08
40948;BME280;49382;-25.924;28.194;2023-03-15T11:47:52;84988.86;;;29.50;24.32
40948;BME280;49382;-25.924;28.194;2023-03-15T11:50:15;84982.26;;;28.88;24.45
40948;BME280;49382;-25.924;28.194;2023-03-15T11:52:40;84980.49;;;29.07;24.25
40948;BME280;49382;-25.924;28.194;2023-03-15T11:57:37;84981.44;;;29.01;24.61
40948;BME280;49382;-25.924;28.194;2023-03-15T12:04:50;84966.05;;;29.24;22.47
40948;BME280;49382;-25.924;28.194;2023-03-15T12:09:47;84949.13;;;29.43;21.71
40948;BME280;49382;-25.924;28.194;2023-03-15T12:14:34;84941.68;;;28.67;23.85
40948;BME280;49382;-25.924;28.194;2023-03-15T12:19:24;84939.87;;;29.46;24.53
40948;BME280;49382;-25.924;28.194;2023-03-15T12:21:51;84937.30;;;29.02;21.86
40948;BME280;49382;-25.924;28.194;2023-03-15T12:24:19;84937.94;;;29.80;20.83
40948;BME280;49382;-25.924;28.194;2023-03-15T12:26:43;84926.62;;;28.60;21.16
40948;BME280;49382;-25.924;28.194;2023-03-15T12:29:12;84925.91;;;29.23;20.82
40948;BME280;49382;-25.924;28.194;2023-03-15T12:33:57;84924.10;;;29.05;22.21
40948;BME280;49382;-25.924;28.194;2023-03-15T12:36:33;84924.58;;;28.42;20.62
40948;BME280;49382;-25.924;28.194;2023-03-15T12:38:57;84920.59;;;29.50;19.71
40948;BME280;49382;-25.924;28.194;2023-03-15T12:43:41;84910.52;;;28.87;18.90
40948;BME280;49382;-25.924;28.194;2023-03-15T12:46:06;84910.97;;;29.00;18.97
40948;BME280;49382;-25.924;28.194;2023-03-15T12:48:34;84911.94;;;29.34;18.20
40948;BME280;49382;-25.924;28.194;2023-03-15T12:51:00;84915.84;;;28.88;18.56
40948;BME280;49382;-25.924;28.194;2023-03-15T12:53:31;84908.98;;;29.58;18.22
40948;BME280;49382;-25.924;28.194;2023-03-15T12:55:49;84902.79;;;29.69;17.71
40948;BME280;49382;-25.924;28.194;2023-03-15T12:58:17;84896.95;;;28.88;18.83
40948;BME280;49382;-25.924;28.194;2023-03-15T13:00:41;84893.11;;;28.23;18.94
40948;BME280;49382;-25.924;28.194;2023-03-15T13:03:10;84895.00;;;28.87;19.27